createdAt,value
2022-09-28T00:01:59.664Z,69.45
2022-09-28T00:04:28.328Z,69.24
2022-09-28T00:06:56.916Z,69.26
2022-09-28T00:09:26.522Z,69.24
2022-09-28T00:11:56.642Z,69.30
2022-09-28T00:14:26.662Z,69.15
2022-09-28T00:16:55.245Z,69.20
2022-09-28T00:19:24.034Z,69.49
2022-09-28T00:21:52.924Z,69.55
2022-09-28T00:24:26.683Z,69.62
2022-09-28T00:26:58.141Z,69.47
2022-09-28T00:29:29.702Z,69.47
2022-09-28T00:32:04.099Z,69.92
2022-09-28T00:34:35.029Z,69.53
2022-09-28T00:37:05.678Z,69.83
2022-09-28T00:39:36.236Z,70.33
2022-09-28T00:42:12.534Z,70.05
2022-09-28T00:44:48.743Z,70.16
2022-09-28T00:47:20.753Z,70.41
2022-09-28T00:50:23.844Z,70.48
2022-09-28T00:53:08.606Z,70.57
2022-09-28T00:55:48.867Z,70.39
2022-09-28T00:58:43.362Z,70.35
2022-09-28T01:01:12.916Z,70.36
2022-09-28T01:03:45.747Z,70.58
2022-09-28T01:06:27.975Z,70.47
2022-09-28T01:09:02.735Z,70.20
2022-09-28T01:11:33.924Z,70.08
2022-09-28T01:14:06.504Z,70.24
2022-09-28T01:16:41.332Z,70.15
2022-09-28T01:20:27.640Z,70.33
2022-09-28T01:23:17.935Z,70.39
2022-09-28T01:26:11.218Z,70.69
2022-09-28T01:28:44.183Z,70.65
2022-09-28T01:31:15.316Z,70.61
2022-09-28T01:33:58.048Z,71.01
2022-09-28T01:36:37.035Z,71.01
2022-09-28T01:39:14.152Z,70.86
2022-09-28T01:41:46.671Z,71.02
2022-09-28T01:44:18.963Z,71.28
2022-09-28T01:46:50.266Z,70.84
2022-09-28T01:49:24.577Z,71.16
2022-09-28T01:52:09.544Z,71.41
2022-09-28T01:54:46.726Z,71.94
2022-09-28T01:57:27.316Z,72.03
2022-09-28T02:00:04.657Z,72.11
2022-09-28T02:03:22.010Z,72.23
2022-09-28T02:06:02.135Z,72.39
2022-09-28T02:08:40.889Z,71.87
2022-09-28T02:11:20.126Z,71.92
2022-09-28T02:14:10.315Z,71.77
2022-09-28T02:16:44.487Z,71.80
2022-09-28T02:19:20.141Z,71.59
2022-09-28T02:21:59.003Z,71.82
2022-09-28T02:24:35.831Z,71.66
2022-09-28T02:27:15.118Z,71.57
2022-09-28T02:29:44.005Z,71.43
2022-09-28T02:32:13.306Z,71.57
2022-09-28T02:34:42.093Z,71.78
2022-09-28T02:37:10.879Z,71.68
2022-09-28T02:39:39.982Z,71.42
2022-09-28T02:42:15.327Z,72.15
2022-09-28T02:44:47.284Z,72.00
2022-09-28T02:47:39.522Z,71.96
2022-09-28T02:50:11.385Z,72.30
2022-09-28T02:52:49.798Z,72.35
2022-09-28T02:56:13.787Z,72.79
2022-09-28T02:59:02.542Z,72.66
2022-09-28T03:01:34.248Z,72.89
2022-09-28T03:04:12.099Z,72.96
2022-09-28T03:06:43.009Z,72.59
2022-09-28T03:09:29.129Z,72.65
2022-09-28T03:12:01.784Z,72.63
2022-09-28T03:14:31.011Z,72.87
2022-09-28T03:17:00.007Z,72.53
2022-09-28T03:19:32.886Z,72.88
2022-09-28T03:22:02.237Z,72.58
2022-09-28T03:24:30.980Z,72.70
2022-09-28T03:26:59.668Z,72.48
2022-09-28T03:29:31.646Z,72.42
2022-09-28T03:32:02.574Z,72.28
2022-09-28T03:34:31.053Z,72.22
2022-09-28T03:37:00.044Z,71.98
2022-09-28T03:39:28.733Z,72.14
2022-09-28T03:41:57.571Z,72.61
2022-09-28T03:44:26.206Z,72.29
2022-09-28T03:46:54.891Z,72.67
2022-09-28T03:49:23.477Z,72.96
2022-09-28T03:51:52.365Z,72.73
2022-09-28T03:54:26.481Z,72.92
2022-09-28T03:56:55.481Z,72.97
2022-09-28T03:59:24.363Z,72.66
2022-09-28T04:01:53.477Z,72.81
2022-09-28T04:04:22.663Z,73.26
2022-09-28T04:06:51.279Z,73.15
2022-09-28T04:09:19.930Z,72.78
2022-09-28T04:12:03.487Z,73.47
2022-09-28T04:14:34.729Z,73.28
2022-09-28T04:17:03.297Z,73.31
2022-09-28T04:19:33.929Z,73.32
2022-09-28T04:22:18.386Z,73.10
2022-09-28T04:24:47.071Z,73.08
2022-09-28T04:27:34.089Z,72.69
2022-09-28T04:30:04.637Z,72.85
2022-09-28T04:32:35.152Z,72.58
2022-09-28T04:35:04.347Z,72.43
2022-09-28T04:37:34.168Z,72.69
2022-09-28T04:40:04.490Z,72.61
2022-09-28T04:42:34.051Z,72.28
2022-09-28T04:45:05.098Z,72.33
2022-09-28T04:47:37.199Z,72.26
2022-09-28T04:50:31.794Z,72.13
2022-09-28T04:53:21.166Z,72.07
2022-09-28T04:56:06.791Z,71.89
2022-09-28T04:58:36.212Z,72.02
2022-09-28T05:01:07.549Z,72.18
2022-09-28T05:03:54.515Z,72.19
2022-09-28T05:06:33.750Z,72.05
2022-09-28T05:09:09.941Z,71.93
2022-09-28T05:11:38.700Z,71.75
2022-09-28T05:14:13.590Z,71.77
2022-09-28T05:16:42.794Z,72.08
2022-09-28T05:19:23.707Z,71.74
2022-09-28T05:21:53.324Z,71.76
2022-09-28T05:24:21.900Z,71.87
2022-09-28T05:26:54.269Z,71.83
2022-09-28T05:29:23.063Z,71.59
2022-09-28T05:32:30.046Z,71.54
2022-09-28T05:35:13.510Z,71.33
2022-09-28T05:37:47.693Z,71.14
2022-09-28T05:40:16.850Z,71.04
2022-09-28T05:42:45.696Z,70.95
2022-09-28T05:45:15.289Z,70.46
2022-09-28T05:47:46.521Z,70.39
2022-09-28T05:50:18.909Z,70.34
2022-09-28T05:52:48.120Z,70.16
2022-09-28T05:55:16.690Z,70.10
2022-09-28T05:57:45.381Z,69.80
2022-09-28T06:00:14.577Z,69.37
2022-09-28T06:02:43.710Z,69.47
2022-09-28T06:05:14.917Z,69.48
2022-09-28T06:07:43.402Z,69.36
2022-09-28T06:10:11.983Z,69.22
2022-09-28T06:12:45.995Z,69.09
2022-09-28T06:15:17.767Z,68.82
2022-09-28T06:17:48.187Z,68.99
2022-09-28T06:20:49.127Z,69.00
2022-09-28T06:23:19.659Z,68.80
2022-09-28T06:25:48.340Z,68.70
2022-09-28T06:28:17.947Z,68.59
2022-09-28T06:30:48.825Z,68.57
2022-09-28T06:33:20.037Z,68.64
2022-09-28T06:35:48.833Z,68.40
2022-09-28T06:38:19.966Z,68.44
2022-09-28T06:40:50.265Z,68.41
2022-09-28T06:43:19.284Z,68.18
2022-09-28T06:46:10.092Z,67.92
2022-09-28T06:48:57.207Z,67.83
2022-09-28T06:51:46.786Z,67.57
2022-09-28T06:54:37.486Z,67.34
2022-09-28T06:57:28.701Z,67.49
2022-09-28T06:59:57.800Z,66.63
2022-09-28T07:02:26.551Z,66.38
2022-09-28T07:05:04.391Z,66.63
2022-09-28T07:07:49.934Z,66.79
2022-09-28T07:10:28.572Z,66.04
2022-09-28T07:13:47.178Z,65.73
2022-09-28T07:16:09.939Z,65.77
2022-09-28T07:18:38.627Z,65.83
2022-09-28T07:21:13.123Z,65.56
2022-09-28T07:23:52.400Z,65.30
2022-09-28T07:26:26.331Z,65.08
2022-09-28T07:29:17.460Z,64.90
2022-09-28T07:31:58.443Z,65.05
2022-09-28T07:34:45.555Z,65.03
2022-09-28T07:37:20.598Z,64.44
2022-09-28T07:40:09.031Z,64.09
2022-09-28T07:42:39.470Z,64.46
2022-09-28T07:45:08.977Z,64.29
2022-09-28T07:47:38.469Z,64.00
2022-09-28T07:50:14.231Z,64.27
2022-09-28T07:53:06.162Z,64.38
2022-09-28T07:56:07.321Z,64.33
2022-09-28T07:58:44.086Z,63.62
2022-09-28T08:01:39.092Z,63.31
2022-09-28T08:04:09.722Z,62.99
2022-09-28T08:06:40.967Z,62.47
2022-09-28T08:09:11.599Z,62.45
2022-09-28T08:11:59.918Z,62.29
2022-09-28T08:14:37.983Z,62.71
2022-09-28T08:17:29.575Z,62.12
2022-09-28T08:20:20.280Z,61.48
2022-09-28T08:22:49.068Z,61.81
2022-09-28T08:25:17.704Z,61.56
2022-09-28T08:27:46.443Z,60.90
2022-09-28T08:30:16.371Z,60.38
2022-09-28T08:33:04.161Z,60.62
2022-09-28T08:35:47.111Z,60.33
2022-09-28T08:38:19.893Z,59.60
2022-09-28T08:41:28.202Z,59.86
2022-09-28T08:44:25.758Z,58.47
2022-09-28T08:47:45.014Z,59.03
2022-09-28T08:50:31.685Z,58.21
2022-09-28T08:53:28.501Z,57.49
2022-09-28T08:56:26.885Z,56.72
2022-09-28T08:59:02.352Z,56.18
2022-09-28T09:01:39.681Z,55.01
2022-09-28T09:04:13.026Z,54.67
2022-09-28T09:07:40.488Z,52.43
2022-09-28T09:10:30.777Z,51.95
2022-09-28T09:13:37.962Z,53.13
2022-09-28T09:16:25.107Z,52.09
2022-09-28T09:19:35.962Z,51.57
2022-09-28T09:22:18.163Z,50.95
2022-09-28T09:25:28.843Z,50.48
2022-09-28T09:28:02.611Z,48.30
2022-09-28T09:30:57.535Z,48.14
2022-09-28T09:33:44.555Z,47.26
2022-09-28T09:37:17.964Z,48.29
2022-09-28T09:40:30.834Z,46.00
2022-09-28T09:44:03.820Z,44.93
2022-09-28T09:47:02.565Z,45.66
2022-09-28T09:50:16.538Z,44.53
2022-09-28T09:52:58.620Z,43.92
2022-09-28T09:55:40.584Z,44.52
2022-09-28T09:58:39.920Z,43.64
2022-09-28T10:01:43.732Z,44.83
2022-09-28T10:04:24.400Z,43.31
2022-09-28T10:06:59.473Z,42.66
2022-09-28T10:09:35.542Z,41.27
2022-09-28T10:12:22.266Z,41.72
2022-09-28T10:14:51.194Z,38.92
2022-09-28T10:17:27.051Z,36.34
2022-09-28T10:20:16.500Z,37.80
2022-09-28T10:23:02.317Z,39.43
2022-09-28T10:25:35.095Z,38.64
2022-09-28T10:28:06.547Z,37.17
2022-09-28T10:30:44.637Z,38.22
2022-09-28T10:33:34.362Z,36.81
2022-09-28T10:36:07.532Z,35.21
2022-09-28T10:38:36.314Z,35.64
2022-09-28T10:41:17.456Z,37.01
2022-09-28T10:44:07.016Z,38.21
2022-09-28T10:47:04.818Z,36.77
2022-09-28T10:49:46.814Z,36.85
2022-09-28T10:52:45.532Z,37.07
2022-09-28T10:55:33.794Z,34.71
2022-09-28T10:58:24.575Z,35.14
2022-09-28T11:01:00.229Z,34.72
2022-09-28T11:03:31.453Z,36.34
2022-09-28T11:06:08.120Z,35.51
2022-09-28T11:08:42.212Z,34.18
2022-09-28T11:11:16.206Z,33.54
2022-09-28T11:13:53.004Z,35.48
2022-09-28T11:16:33.441Z,36.58
2022-09-28T11:19:30.151Z,35.77
2022-09-28T11:21:59.350Z,32.60
2022-09-28T11:24:36.536Z,34.33
2022-09-28T11:27:05.531Z,36.43
2022-09-28T11:29:59.516Z,36.08
2022-09-28T11:32:44.939Z,32.72
2022-09-28T11:35:37.922Z,32.40
2022-09-28T11:38:26.025Z,32.77
2022-09-28T11:41:43.520Z,33.42
2022-09-28T11:44:47.735Z,33.55
2022-09-28T11:47:47.657Z,32.55
2022-09-28T11:50:26.081Z,31.38
2022-09-28T11:53:39.669Z,33.80
2022-09-28T11:56:36.467Z,34.52
2022-09-28T11:59:11.106Z,33.12
2022-09-28T12:02:17.136Z,33.67
2022-09-28T12:04:57.176Z,34.29
2022-09-28T12:07:33.365Z,33.14
2022-09-28T12:10:09.778Z,34.78
2022-09-28T12:12:48.001Z,33.87
2022-09-28T12:16:07.435Z,33.62
2022-09-28T12:18:50.640Z,33.50
2022-09-28T12:21:28.145Z,33.81
2022-09-28T12:24:22.423Z,35.59
2022-09-28T12:27:03.706Z,36.01
2022-09-28T12:29:43.971Z,36.51
2022-09-28T12:32:15.725Z,36.35
2022-09-28T12:34:45.039Z,36.05
2022-09-28T12:37:32.243Z,36.06
2022-09-28T12:40:27.206Z,36.70
2022-09-28T12:43:07.803Z,36.62
2022-09-28T12:45:59.766Z,37.09
2022-09-28T12:49:33.161Z,37.30
2022-09-28T12:51:54.973Z,37.13
2022-09-28T12:54:48.648Z,37.51
2022-09-28T12:57:36.486Z,37.65
2022-09-28T13:00:23.175Z,37.92
2022-09-28T13:03:31.960Z,37.60
2022-09-28T13:06:15.553Z,37.59
2022-09-28T13:09:14.960Z,37.61
2022-09-28T13:12:16.133Z,38.11
2022-09-28T13:15:09.785Z,38.16
2022-09-28T13:18:02.006Z,37.77
2022-09-28T13:21:03.385Z,37.91
2022-09-28T13:23:44.673Z,37.99
2022-09-28T13:26:30.851Z,37.26
2022-09-28T13:29:11.564Z,36.61
2022-09-28T13:31:55.153Z,36.70
2022-09-28T13:34:32.972Z,37.64
2022-09-28T13:37:24.683Z,37.25
2022-09-28T13:39:58.505Z,37.07
2022-09-28T13:42:29.944Z,37.21
2022-09-28T13:45:01.708Z,36.37
2022-09-28T13:47:42.466Z,36.38
2022-09-28T13:50:27.849Z,36.83
2022-09-28T13:53:33.844Z,37.14
2022-09-28T13:56:24.778Z,37.18
2022-09-28T13:59:11.322Z,36.72
2022-09-28T14:01:44.183Z,36.60
2022-09-28T14:04:22.288Z,36.78
2022-09-28T14:07:11.402Z,37.19
2022-09-28T14:10:18.470Z,37.06
2022-09-28T14:12:52.147Z,36.99
2022-09-28T14:15:29.990Z,36.96
2022-09-28T14:18:10.842Z,37.02
2022-09-28T14:20:51.211Z,36.62
2022-09-28T14:23:25.554Z,36.86
2022-09-28T14:26:12.538Z,36.71
2022-09-28T14:29:14.327Z,36.98
2022-09-28T14:31:44.221Z,37.18
2022-09-28T14:34:36.065Z,37.45
2022-09-28T14:37:37.604Z,37.31
2022-09-28T14:40:55.345Z,37.38
2022-09-28T14:43:58.234Z,37.58
2022-09-28T14:46:33.836Z,37.66
2022-09-28T14:49:13.014Z,37.52
2022-09-28T14:51:41.699Z,36.87
2022-09-28T14:54:12.944Z,37.24
2022-09-28T14:56:53.922Z,37.53
2022-09-28T14:59:36.390Z,37.75
2022-09-28T15:02:10.855Z,37.79
2022-09-28T15:05:09.132Z,38.12
2022-09-28T15:07:48.419Z,37.43
2022-09-28T15:10:33.687Z,37.87
2022-09-28T15:13:05.994Z,38.03
2022-09-28T15:15:41.049Z,37.84
2022-09-28T15:18:09.631Z,38.16
2022-09-28T15:20:42.055Z,38.32
2022-09-28T15:23:44.329Z,38.47
2022-09-28T15:26:48.498Z,38.52
2022-09-28T15:29:18.412Z,38.66
2022-09-28T15:31:50.004Z,38.89
2022-09-28T15:34:51.322Z,38.93
2022-09-28T15:37:27.059Z,38.88
2022-09-28T15:39:58.011Z,39.08
2022-09-28T15:42:27.306Z,39.24
2022-09-28T15:45:01.937Z,39.40
2022-09-28T15:47:33.193Z,39.61
2022-09-28T15:50:05.381Z,39.61
2022-09-28T15:52:37.114Z,39.74
2022-09-28T15:55:36.412Z,39.84
2022-09-28T15:58:23.008Z,40.12
2022-09-28T16:01:36.846Z,40.25
2022-09-28T16:04:48.202Z,40.23
2022-09-28T16:07:16.734Z,40.25
2022-09-28T16:10:25.439Z,40.18
2022-09-28T16:12:59.130Z,40.25
2022-09-28T16:15:32.364Z,40.38
2022-09-28T16:18:22.444Z,40.42
2022-09-28T16:20:54.115Z,40.43
2022-09-28T16:23:34.410Z,40.38
2022-09-28T16:26:08.995Z,40.53
2022-09-28T16:28:41.069Z,40.59
2022-09-28T16:31:12.776Z,40.50
2022-09-28T16:33:47.023Z,40.45
2022-09-28T16:36:17.535Z,40.53
2022-09-28T16:38:47.264Z,40.53
2022-09-28T16:41:20.888Z,40.63
2022-09-28T16:43:55.051Z,40.64
2022-09-28T16:46:36.846Z,40.78
2022-09-28T16:49:13.348Z,40.86
2022-09-28T16:51:41.931Z,40.88
2022-09-28T16:54:32.324Z,40.95
2022-09-28T16:57:02.444Z,41.02
2022-09-28T16:59:31.554Z,41.05
2022-09-28T17:02:00.556Z,41.18
2022-09-28T17:04:29.222Z,41.22
2022-09-28T17:06:58.626Z,41.26
2022-09-28T17:09:27.121Z,41.42
2022-09-28T17:11:57.330Z,41.41
2022-09-28T17:14:26.057Z,41.50
2022-09-28T17:17:08.082Z,41.62
2022-09-28T17:19:38.145Z,41.75
2022-09-28T17:22:08.567Z,41.72
2022-09-28T17:24:37.974Z,41.94
2022-09-28T17:27:07.371Z,41.93
2022-09-28T17:29:36.056Z,42.07
2022-09-28T17:32:15.292Z,42.10
2022-09-28T17:34:51.506Z,42.08
2022-09-28T17:37:24.545Z,42.27
2022-09-28T17:39:53.229Z,42.27
2022-09-28T17:42:21.847Z,42.27
2022-09-28T17:44:50.394Z,42.09
2022-09-28T17:47:19.083Z,42.29
2022-09-28T17:49:47.770Z,42.26
2022-09-28T17:52:16.359Z,42.36
2022-09-28T17:54:44.936Z,42.38
2022-09-28T17:57:13.931Z,42.45
2022-09-28T17:59:42.517Z,42.53
2022-09-28T18:02:12.121Z,42.57
2022-09-28T18:04:51.745Z,42.53
2022-09-28T18:07:21.582Z,42.58
2022-09-28T18:09:57.046Z,42.63
2022-09-28T18:12:25.715Z,42.65
2022-09-28T18:14:54.311Z,42.64
2022-09-28T18:17:23.083Z,42.78
2022-09-28T18:19:51.872Z,42.88
2022-09-28T18:22:20.570Z,42.93
2022-09-28T18:24:49.451Z,43.04
2022-09-28T18:27:18.137Z,43.08
2022-09-28T18:29:46.726Z,43.23
2022-09-28T18:32:15.442Z,43.33
2022-09-28T18:34:43.981Z,43.33
2022-09-28T18:37:12.536Z,43.37
2022-09-28T18:39:41.080Z,43.49
2022-09-28T18:42:10.691Z,43.56
2022-09-28T18:44:39.354Z,43.59
2022-09-28T18:47:07.799Z,43.67
2022-09-28T18:49:36.467Z,43.74
2022-09-28T18:52:05.498Z,43.85
2022-09-28T18:54:34.102Z,43.91
2022-09-28T18:57:02.703Z,43.96
2022-09-28T18:59:31.519Z,44.26
2022-09-28T19:02:02.047Z,44.31
2022-09-28T19:04:31.375Z,44.26
2022-09-28T19:07:00.144Z,44.40
2022-09-28T19:09:28.880Z,44.35
2022-09-28T19:11:57.567Z,44.38
2022-09-28T19:14:26.656Z,44.35
2022-09-28T19:16:55.451Z,44.50
2022-09-28T19:19:23.929Z,44.58
2022-09-28T19:21:52.451Z,44.75
2022-09-28T19:24:21.520Z,44.79
2022-09-28T19:26:50.230Z,44.85
2022-09-28T19:29:18.863Z,45.12
2022-09-28T19:31:47.804Z,45.08
2022-09-28T19:34:16.469Z,45.22
2022-09-28T19:36:45.767Z,45.37
2022-09-28T19:39:15.785Z,45.40
2022-09-28T19:41:51.600Z,45.64
2022-09-28T19:44:25.926Z,45.67
2022-09-28T19:47:07.680Z,45.82
2022-09-28T19:49:40.274Z,45.92
2022-09-28T19:52:16.375Z,46.34
2022-09-28T19:54:56.049Z,46.39
2022-09-28T19:57:35.172Z,46.45
2022-09-28T20:00:04.566Z,46.97
2022-09-28T20:02:37.925Z,46.75
2022-09-28T20:05:08.533Z,46.69
2022-09-28T20:07:37.180Z,46.76
2022-09-28T20:10:06.581Z,47.02
2022-09-28T20:12:35.072Z,47.34
2022-09-28T20:15:05.447Z,46.99
2022-09-28T20:17:36.275Z,47.13
2022-09-28T20:20:05.349Z,47.22
2022-09-28T20:22:34.006Z,47.24
2022-09-28T20:25:03.514Z,47.37
2022-09-28T20:27:33.326Z,47.41
2022-09-28T20:30:02.320Z,47.43
2022-09-28T20:32:35.718Z,47.54
2022-09-28T20:35:05.119Z,48.17
2022-09-28T20:37:34.524Z,49.32
2022-09-28T20:40:03.006Z,48.63
2022-09-28T20:42:32.307Z,48.35
2022-09-28T20:45:01.095Z,48.26
2022-09-28T20:47:29.780Z,48.58
2022-09-28T20:49:58.675Z,48.76
2022-09-28T20:52:27.377Z,48.56
2022-09-28T20:54:56.296Z,48.63
2022-09-28T20:57:25.041Z,48.65
2022-09-28T20:59:54.860Z,48.87
2022-09-28T21:02:24.021Z,48.88
2022-09-28T21:04:52.735Z,49.49
2022-09-28T21:07:21.424Z,50.00
2022-09-28T21:09:50.847Z,49.90
2022-09-28T21:12:19.722Z,49.78
2022-09-28T21:14:48.199Z,49.73
2022-09-28T21:17:16.682Z,49.85
2022-09-28T21:19:45.581Z,49.79
2022-09-28T21:22:14.361Z,50.14
2022-09-28T21:24:42.947Z,50.32
2022-09-28T21:27:11.430Z,51.14
2022-09-28T21:29:39.909Z,51.90
2022-09-28T21:32:08.801Z,51.79
2022-09-28T21:34:37.385Z,51.47
2022-09-28T21:37:06.174Z,51.41
2022-09-28T21:39:34.759Z,52.76
2022-09-28T21:42:03.580Z,53.09
2022-09-28T21:44:32.134Z,53.13
2022-09-28T21:47:00.717Z,53.78
2022-09-28T21:49:29.709Z,54.16
2022-09-28T21:51:58.293Z,54.10
2022-09-28T21:54:28.311Z,54.40
2022-09-28T21:56:56.999Z,55.15
2022-09-28T21:59:26.197Z,55.83
2022-09-28T22:01:54.934Z,55.70
2022-09-28T22:04:23.585Z,54.64
2022-09-28T22:06:52.156Z,55.14
2022-09-28T22:09:20.736Z,54.72
2022-09-28T22:11:49.744Z,54.78
2022-09-28T22:14:18.764Z,54.20
2022-09-28T22:16:47.736Z,53.82
2022-09-28T22:19:16.214Z,54.49
2022-09-28T22:21:45.502Z,54.47
2022-09-28T22:24:14.329Z,54.06
2022-09-28T22:26:42.878Z,53.88
2022-09-28T22:29:11.671Z,54.02
2022-09-28T22:31:41.814Z,54.19
2022-09-28T22:34:10.581Z,54.23
2022-09-28T22:36:39.366Z,54.09
2022-09-28T22:39:08.406Z,54.42
2022-09-28T22:41:37.044Z,55.55
2022-09-28T22:44:05.942Z,55.52
2022-09-28T22:46:34.777Z,54.51
2022-09-28T22:49:03.521Z,55.33
2022-09-28T22:51:32.105Z,56.01
2022-09-28T22:54:01.532Z,55.42
2022-09-28T22:56:30.457Z,55.96
2022-09-28T22:58:59.641Z,56.06
2022-09-28T23:01:30.572Z,56.22
2022-09-28T23:03:59.833Z,55.81
2022-09-28T23:06:31.031Z,55.46
2022-09-28T23:08:59.866Z,55.48
2022-09-28T23:11:29.986Z,55.54
2022-09-28T23:14:00.001Z,56.04
2022-09-28T23:16:28.740Z,56.96
2022-09-28T23:18:58.091Z,56.41
2022-09-28T23:21:28.897Z,56.31
2022-09-28T23:24:01.764Z,56.20
2022-09-28T23:26:32.858Z,56.40
2022-09-28T23:29:01.754Z,56.38
2022-09-28T23:31:32.854Z,57.81
2022-09-28T23:34:04.949Z,57.64
2022-09-28T23:36:34.673Z,56.81
2022-09-28T23:39:03.559Z,56.63
2022-09-28T23:41:32.452Z,56.49
2022-09-28T23:44:01.341Z,57.70
2022-09-28T23:46:30.226Z,58.09
2022-09-28T23:48:58.919Z,57.32
2022-09-28T23:51:27.503Z,57.21
2022-09-28T23:53:56.191Z,57.17
2022-09-28T23:56:24.878Z,57.38
2022-09-28T23:58:53.463Z,57.05
